Terminal Aerodrome Forecast
Issued by NWS Twin Cities, MN

Home | Current Version | Previous Version | Graphics & Text | Print | Product List | Glossary On
Versions: 1 2 3 4 5 6 7 8 9 10 11 12 13 14 15 16 17 18
000
FTUS43 KMPX 231500 AAA
TAFSTC
TAF AMD
KSTC 231503Z 2315/2412 03009KT 6SM BR OVC011
      TEMPO 2316/2320 3SM -RASN OVC009
     FM232000 36011KT 3SM -SN BR OVC007
     FM240300 33011KT 4SM BR OVC006=

USA.gov is the U.S. government's official web portal to all federal, state and local government web resources and services.